Time;durP1;ratioP1;P1;durP2;ratioP2;P2;SDS_P1;SDS_P2;PMS_P1;PMS_P2;Temp;Humidity;BMP_temperature;BMP_pressure;BME280_temperature;BME280_humidity;BME280_pressure;Samples;Min_cycle;Max_cycle;Signal;HPM_P1;HPM_P2
2023/10/01 00:00:38;;;;;;;7.60;5.88;;;;;;;;;;6204041;23;20315;-83
2023/10/01 00:03:08;;;;;;;9.93;6.60;;;;;;;;;;6168187;23;20027;-83
2023/10/01 00:05:41;;;;;;;7.65;6.07;;;;;;;;;;6191813;23;20031;-83
2023/10/01 00:08:12;;;;;;;5.68;4.47;;;;;;;;;;6169184;23;20025;-83
2023/10/01 00:10:42;;;;;;;6.05;4.60;;;;;;;;;;6188757;23;20435;-82
2023/10/01 00:13:14;;;;;;;6.47;4.68;;;;;;;;;;6166537;23;20017;-82
2023/10/01 00:15:41;;;;;;;9.60;5.03;;;;;;;;;;6218104;23;20017;-82
2023/10/01 00:18:08;;;;;;;5.72;5.22;;;;;;;;;;6192704;23;20017;-82
2023/10/01 00:20:38;;;;;;;9.55;5.68;;;;;;;;;;6166129;23;20016;-82
2023/10/01 00:23:09;;;;;;;7.32;5.07;;;;;;;;;;6190298;23;20348;-83
2023/10/01 00:25:41;;;;;;;7.43;5.47;;;;;;;;;;6224910;23;20030;-83
2023/10/01 00:28:09;;;;;;;10.30;5.47;;;;;;;;;;6216144;23;20012;-83
2023/10/01 00:30:38;;;;;;;7.82;5.60;;;;;;;;;;6162787;23;20016;-82
2023/10/01 00:33:07;;;;;;;7.25;4.93;;;;;;;;;;6189905;23;20020;-82
2023/10/01 00:35:37;;;;;;;8.63;6.00;;;;;;;;;;6187998;23;20024;-82
2023/10/01 00:38:07;;;;;;;6.60;4.78;;;;;;;;;;6201432;23;20012;-83
2023/10/01 00:40:38;;;;;;;7.22;6.53;;;;;;;;;;6191950;23;20013;-82
2023/10/01 00:43:06;;;;;;;7.65;4.93;;;;;;;;;;6192646;23;20021;-83
2023/10/01 00:45:35;;;;;;;6.55;4.78;;;;;;;;;;6217923;23;20038;-83
2023/10/01 00:48:08;;;;;;;7.40;4.00;;;;;;;;;;6200794;23;20013;-83
2023/10/01 00:50:37;;;;;;;8.43;5.55;;;;;;;;;;6200870;23;20019;-82
2023/10/01 00:53:07;;;;;;;4.72;4.00;;;;;;;;;;6165721;23;20027;-82
2023/10/01 00:55:34;;;;;;;8.70;4.90;;;;;;;;;;6190672;23;20345;-83
2023/10/01 00:58:03;;;;;;;10.30;6.00;;;;;;;;;;6164675;23;20016;-83
2023/10/01 01:00:31;;;;;;;7.70;5.10;;;;;;;;;;6164144;23;20020;-82
2023/10/01 01:03:05;;;;;;;10.25;5.50;;;;;;;;;;6199149;23;20461;-82
2023/10/01 01:05:36;;;;;;;8.05;5.65;;;;;;;;;;6164766;23;20025;-82
2023/10/01 01:08:09;;;;;;;7.13;5.35;;;;;;;;;;6164346;23;20021;-82
2023/10/01 01:10:40;;;;;;;6.37;4.13;;;;;;;;;;6165380;23;20017;-82
2023/10/01 01:13:16;;;;;;;5.25;3.88;;;;;;;;;;6193172;23;20017;-82
2023/10/01 01:15:46;;;;;;;6.82;5.30;;;;;;;;;;6167295;23;20024;-82
2023/10/01 01:18:14;;;;;;;4.88;4.05;;;;;;;;;;6168822;23;20358;-82
2023/10/01 01:20:45;;;;;;;7.65;4.72;;;;;;;;;;6167340;23;20016;-82
2023/10/01 01:23:23;;;;;;;11.63;5.70;;;;;;;;;;6166957;23;20021;-82
2023/10/01 01:25:52;;;;;;;16.40;7.18;;;;;;;;;;6167690;23;20036;-82
2023/10/01 01:28:24;;;;;;;8.13;4.75;;;;;;;;;;6165814;23;20460;-82
2023/10/01 01:30:55;;;;;;;8.27;5.55;;;;;;;;;;6166656;23;20024;-82
2023/10/01 01:33:26;;;;;;;9.18;4.40;;;;;;;;;;6191887;23;20009;-82
2023/10/01 01:35:57;;;;;;;;;;;;;;;;;;6167767;23;20027;-82
2023/10/01 01:38:26;;;;;;;7.55;4.40;;;;;;;;;;6179705;23;19920;-83
2023/10/01 01:40:53;;;;;;;7.05;4.35;;;;;;;;;;6213228;23;20023;-83
2023/10/01 01:43:23;;;;;;;5.10;4.05;;;;;;;;;;6188363;23;20021;-83
2023/10/01 01:45:54;;;;;;;7.88;5.35;;;;;;;;;;6212939;23;20013;-83
2023/10/01 01:48:31;;;;;;;9.05;5.97;;;;;;;;;;6157954;23;20017;-83
2023/10/01 01:51:00;;;;;;;8.90;5.07;;;;;;;;;;6160060;23;20028;-83
2023/10/01 01:53:34;;;;;;;6.28;4.85;;;;;;;;;;6158247;23;20024;-83
2023/10/01 01:56:10;;;;;;;7.78;5.13;;;;;;;;;;6182878;23;20397;-83
2023/10/01 01:58:37;;;;;;;;;;;;;;;;;;6208102;23;20017;-83
2023/10/01 02:01:17;;;;;;;7.53;4.25;;;;;;;;;;6182741;23;19920;-83
2023/10/01 02:03:51;;;;;;;9.07;4.90;;;;;;;;;;6208380;23;20024;-83
2023/10/01 02:06:27;;;;;;;7.10;4.88;;;;;;;;;;6213013;23;20021;-83
2023/10/01 02:08:58;;;;;;;9.70;5.18;;;;;;;;;;6182520;23;20021;-83
2023/10/01 02:11:25;;;;;;;5.28;4.38;;;;;;;;;;6193125;23;20016;-83
2023/10/01 02:13:54;;;;;;;7.22;4.07;;;;;;;;;;6182762;23;20017;-83
2023/10/01 02:19:22;;;;;;;6.65;5.22;;;;;;;;;;6163716;23;20033;-83
2023/10/01 02:22:00;;;;;;;9.20;4.32;;;;;;;;;;6217537;23;20024;-83
2023/10/01 02:24:45;;;;;;;6.72;4.15;;;;;;;;;;6217747;23;20027;-83
2023/10/01 02:27:14;;;;;;;6.15;4.55;;;;;;;;;;6183891;23;20345;-83
2023/10/01 02:32:32;;;;;;;8.82;5.00;;;;;;;;;;6181238;23;20108;-83
2023/10/01 02:35:00;;;;;;;6.18;4.07;;;;;;;;;;6157220;23;20353;-83
2023/10/01 02:37:35;;;;;;;5.75;4.40;;;;;;;;;;6204669;23;20008;-84
2023/10/01 02:40:12;;;;;;;6.82;4.22;;;;;;;;;;6213608;23;20013;-84
2023/10/01 02:42:44;;;;;;;4.95;4.03;;;;;;;;;;6206702;23;20015;-83
2023/10/01 02:45:30;;;;;;;8.70;4.97;;;;;;;;;;6186752;23;20021;-83
2023/10/01 03:11:26;;;;;;;7.07;3.38;;;;;;;;;;6228075;23;20016;-82
2023/10/01 03:13:54;;;;;;;4.22;3.65;;;;;;;;;;6192897;23;20027;-82
2023/10/01 04:07:15;;;;;;;7.50;4.78;;;;;;;;;;6247341;22;20027;-82
2023/10/01 04:09:47;;;;;;;11.38;3.38;;;;;;;;;;6217567;23;20535;-82
2023/10/01 04:12:27;;;;;;;7.25;4.00;;;;;;;;;;6191219;23;20591;-82
2023/10/01 04:15:01;;;;;;;6.38;3.88;;;;;;;;;;6254430;23;20479;-84
2023/10/01 04:17:29;;;;;;;5.35;3.85;;;;;;;;;;6217313;23;20016;-84
2023/10/01 04:20:00;;;;;;;4.47;3.25;;;;;;;;;;6192233;23;20020;-84
2023/10/01 04:22:29;;;;;;;7.47;4.15;;;;;;;;;;6191573;23;20017;-83
2023/10/01 04:25:10;;;;;;;10.02;5.45;;;;;;;;;;6243883;23;20491;-84
2023/10/01 04:27:41;;;;;;;6.07;3.78;;;;;;;;;;6191484;23;20460;-83
2023/10/01 04:30:10;;;;;;;5.70;4.30;;;;;;;;;;6217270;23;20017;-83
2023/10/01 04:32:39;;;;;;;7.88;4.47;;;;;;;;;;6243917;23;20453;-84
2023/10/01 04:35:14;;;;;;;4.57;3.72;;;;;;;;;;6167500;23;20496;-83
2023/10/01 04:37:47;;;;;;;8.02;4.60;;;;;;;;;;6216836;23;20023;-83
2023/10/01 04:40:33;;;;;;;3.92;3.38;;;;;;;;;;6191959;23;20476;-83
2023/10/01 04:43:10;;;;;;;6.43;4.72;;;;;;;;;;6217063;23;20027;-83
2023/10/01 04:45:40;;;;;;;8.15;3.88;;;;;;;;;;6219575;22;20023;-84
2023/10/01 04:48:15;;;;;;;9.93;4.13;;;;;;;;;;6213392;23;20030;-84
2023/10/01 04:50:43;;;;;;;6.00;4.80;;;;;;;;;;6218835;23;20020;-84
2023/10/01 04:53:13;;;;;;;9.52;4.75;;;;;;;;;;6233287;23;20347;-83
2023/10/01 04:55:44;;;;;;;6.13;3.17;;;;;;;;;;6194572;22;20016;-83
2023/10/01 04:58:14;;;;;;;6.18;4.45;;;;;;;;;;6219291;23;20016;-84
2023/10/01 05:00:45;;;;;;;6.30;5.03;;;;;;;;;;6195377;23;20031;-84
2023/10/01 05:03:15;;;;;;;6.93;5.85;;;;;;;;;;6194827;23;20016;-83
2023/10/01 05:05:50;;;;;;;7.13;4.22;;;;;;;;;;6228991;22;20024;-84
2023/10/01 05:08:20;;;;;;;7.50;4.47;;;;;;;;;;6192792;23;20031;-83
2023/10/01 05:10:53;;;;;;;9.50;4.25;;;;;;;;;;6217805;23;20023;-84
2023/10/01 05:13:22;;;;;;;4.88;3.72;;;;;;;;;;6193952;23;20019;-84
2023/10/01 05:15:56;;;;;;;6.63;4.75;;;;;;;;;;6226276;23;20468;-83
2023/10/01 05:18:28;;;;;;;6.07;4.65;;;;;;;;;;6229176;23;20020;-84
2023/10/01 05:20:59;;;;;;;6.60;4.40;;;;;;;;;;6193135;23;20031;-84
2023/10/01 05:23:30;;;;;;;5.18;3.83;;;;;;;;;;6192617;23;20016;-84
2023/10/01 05:25:59;;;;;;;7.13;3.85;;;;;;;;;;6225653;23;20031;-84
2023/10/01 05:28:36;;;;;;;5.47;4.63;;;;;;;;;;6218524;23;20468;-84
2023/10/01 05:31:12;;;;;;;4.70;3.72;;;;;;;;;;6228877;23;20024;-84
2023/10/01 05:33:45;;;;;;;7.45;3.65;;;;;;;;;;6229099;23;20016;-84
2023/10/01 05:36:13;;;;;;;6.13;4.28;;;;;;;;;;6193474;23;20016;-84
2023/10/01 05:38:44;;;;;;;4.85;4.05;;;;;;;;;;6219332;23;20008;-84
2023/10/01 05:41:13;;;;;;;8.27;4.97;;;;;;;;;;6193535;23;20020;-84
2023/10/01 05:43:47;;;;;;;9.82;5.43;;;;;;;;;;6218532;23;20360;-84
2023/10/01 05:46:14;;;;;;;6.05;4.13;;;;;;;;;;6193434;23;20016;-84
2023/10/01 05:48:49;;;;;;;5.65;3.90;;;;;;;;;;6194352;23;20042;-84
2023/10/01 05:51:20;;;;;;;4.55;3.83;;;;;;;;;;6193004;23;20024;-84
2023/10/01 05:53:52;;;;;;;5.93;4.55;;;;;;;;;;6192971;23;20016;-84
2023/10/01 06:16:16;;;;;;;5.28;3.92;;;;;;;;;;6057993;23;20490;-84
2023/10/01 06:18:49;;;;;;;6.03;3.78;;;;;;;;;;6100845;23;20017;-84
2023/10/01 06:21:18;;;;;;;;;;;;;;;;;;6214989;23;20479;-83
2023/10/01 06:23:51;;;;;;;9.88;4.85;;;;;;;;;;6229986;23;19904;-84
2023/10/01 06:26:19;;;;;;;6.47;5.53;;;;;;;;;;6216596;23;20052;-86
2023/10/01 06:28:47;;;;;;;6.60;5.25;;;;;;;;;;6243714;23;20051;-84
2023/10/01 06:31:20;;;;;;;5.85;4.55;;;;;;;;;;6217597;23;20080;-84
2023/10/01 06:33:53;;;;;;;8.40;5.65;;;;;;;;;;6217544;23;20056;-85
2023/10/01 07:09:06;;;;;;;6.82;3.92;;;;;;;;;;5962724;23;20046;-84
2023/10/01 07:11:39;;;;;;;6.85;4.53;;;;;;;;;;6105566;23;20020;-84
2023/10/01 07:14:14;;;;;;;4.97;3.65;;;;;;;;;;6204595;23;20025;-85
2023/10/01 07:16:54;;;;;;;13.35;5.15;;;;;;;;;;6190742;23;20021;-84
2023/10/01 07:19:56;;;;;;;;;;;;;;;;;;;;;
2023/10/01 07:22:51;;;;;;;7.60;4.47;;;;;;;;;;6183401;23;20025;-84
2023/10/01 07:25:43;;;;;;;7.90;5.43;;;;;;;;;;6109328;23;20021;-84
2023/10/01 07:28:34;;;;;;;6.15;4.63;;;;;;;;;;6160672;23;20453;-84
2023/10/01 07:31:19;;;;;;;10.95;4.90;;;;;;;;;;6210972;23;20016;-84
2023/10/01 07:33:47;;;;;;;5.40;4.38;;;;;;;;;;6186521;23;20040;-84
2023/10/01 07:36:19;;;;;;;9.10;5.32;;;;;;;;;;6186311;23;20463;-84
2023/10/01 08:36:19;;;;;;;6.57;4.10;;;;;;;;;;6146008;23;20028;-85
2023/10/01 08:39:34;;;;;;;6.88;3.95;;;;;;;;;;6129221;23;20028;-86
2023/10/01 08:42:08;;;;;;;6.82;4.47;;;;;;;;;;6226010;23;20012;-85
2023/10/01 08:44:46;;;;;;;11.55;4.60;;;;;;;;;;6224846;23;20016;-85
2023/10/01 08:56:33;;;;;;;5.22;3.67;;;;;;;;;;6033224;23;20034;-87
2023/10/01 08:59:23;;;;;;;5.85;4.90;;;;;;;;;;6121460;23;20020;-87
2023/10/01 09:02:15;;;;;;;5.93;5.28;;;;;;;;;;6197938;23;20024;-87
2023/10/01 09:09:52;;;;;;;7.30;4.57;;;;;;;;;;6181823;23;20025;-87
2023/10/01 09:12:56;;;;;;;8.73;5.07;;;;;;;;;;6029781;23;20035;-87
2023/10/01 09:16:11;;;;;;;8.60;5.78;;;;;;;;;;6039032;23;20124;-87
2023/10/01 09:19:30;;;;;;;8.32;5.80;;;;;;;;;;6046051;23;20028;-87
2023/10/01 09:25:49;;;;;;;8.32;4.90;;;;;;;;;;6051703;23;20084;-87
2023/10/01 09:37:01;;;;;;;;;;;;;;;;;;;;;
2023/10/01 09:43:27;;;;;;;9.45;5.97;;;;;;;;;;5922529;24;20031;-88
2023/10/01 09:46:45;;;;;;;;;;;;;;;;;;;;;
2023/10/01 09:50:39;;;;;;;7.25;4.70;;;;;;;;;;6013424;23;20062;-88
2023/10/01 09:53:50;;;;;;;7.13;5.97;;;;;;;;;;6035036;23;20027;-87
2023/10/01 09:56:46;;;;;;;10.13;6.85;;;;;;;;;;6096923;23;20022;-86
2023/10/01 10:00:14;;;;;;;;;;;;;;;;;;;;;
2023/10/01 10:02:53;;;;;;;7.97;5.60;;;;;;;;;;6121225;23;20018;-86
2023/10/01 10:05:26;;;;;;;10.02;5.75;;;;;;;;;;6182783;23;20023;-86
2023/10/01 10:07:56;;;;;;;8.50;5.40;;;;;;;;;;6224053;23;20008;-86
2023/10/01 10:17:19;;;;;;;8.55;5.70;;;;;;;;;;5995962;23;20022;-87
2023/10/01 10:20:15;;;;;;;12.02;6.10;;;;;;;;;;6186942;23;20098;-86
2023/10/01 10:23:21;;;;;;;9.70;5.32;;;;;;;;;;6186129;23;20027;-87
2023/10/01 10:25:49;;;;;;;9.63;5.50;;;;;;;;;;6210839;23;20024;-87
2023/10/01 10:28:25;;;;;;;9.18;6.78;;;;;;;;;;6223579;23;20020;-86
2023/10/01 10:31:32;;;;;;;8.32;6.07;;;;;;;;;;6187679;23;20021;-87
2023/10/01 10:34:25;;;;;;;8.07;5.55;;;;;;;;;;6222295;23;20353;-86
2023/10/01 10:36:58;;;;;;;9.68;6.75;;;;;;;;;;6217053;23;20020;-86
2023/10/01 10:43:16;;;;;;;9.30;5.70;;;;;;;;;;6211610;23;20492;-86
2023/10/01 10:46:06;;;;;;;10.50;6.55;;;;;;;;;;6161878;23;20043;-87
2023/10/01 10:48:59;;;;;;;8.57;4.97;;;;;;;;;;6223729;23;20020;-87
2023/10/01 10:51:49;;;;;;;11.32;6.35;;;;;;;;;;6187157;23;20023;-87
2023/10/01 10:54:28;;;;;;;12.50;5.03;;;;;;;;;;6195877;23;20019;-87
2023/10/01 10:56:57;;;;;;;6.88;4.80;;;;;;;;;;6187101;23;20020;-87
2023/10/01 10:59:25;;;;;;;6.28;5.18;;;;;;;;;;6213704;23;20362;-87
2023/10/01 11:01:56;;;;;;;8.13;5.85;;;;;;;;;;6185315;23;20023;-87
2023/10/01 11:04:43;;;;;;;8.02;5.10;;;;;;;;;;6196554;23;20016;-87
2023/10/01 11:07:19;;;;;;;7.15;4.68;;;;;;;;;;6216626;23;20046;-87
2023/10/01 11:09:54;;;;;;;8.32;5.25;;;;;;;;;;6223167;23;20012;-87
2023/10/01 11:12:22;;;;;;;6.43;5.07;;;;;;;;;;6185543;23;20334;-86
2023/10/01 11:19:12;;;;;;;7.40;5.50;;;;;;;;;;6022536;23;20031;-87
2023/10/01 11:21:51;;;;;;;7.55;4.72;;;;;;;;;;6186251;23;20445;-87
2023/10/01 11:24:23;;;;;;;6.38;4.68;;;;;;;;;;6223342;23;20017;-87
2023/10/01 11:27:22;;;;;;;8.00;5.10;;;;;;;;;;6186416;23;20024;-87
2023/10/01 11:30:19;;;;;;;9.75;6.45;;;;;;;;;;6162538;23;20024;-87
2023/10/01 11:33:01;;;;;;;5.82;3.80;;;;;;;;;;6222535;23;20020;-87
2023/10/01 11:35:37;;;;;;;9.70;4.80;;;;;;;;;;6186315;23;20020;-87
2023/10/01 11:38:18;;;;;;;7.97;4.70;;;;;;;;;;6223666;23;20020;-87
2023/10/01 11:41:18;;;;;;;;;;;;;;;;;;6199473;23;20017;-87
2023/10/01 11:44:05;;;;;;;12.05;5.50;;;;;;;;;;6161793;23;19916;-86
2023/10/01 11:47:25;;;;;;;;;;;;;;;;;;;;;
2023/10/01 11:53:40;;;;;;;;;;;;;;;;;;;;;
2023/10/01 11:56:45;;;;;;;;;;;;;;;;;;;;;
2023/10/01 12:00:23;;;;;;;6.20;4.57;;;;;;;;;;6190638;23;20020;-86
2023/10/01 12:03:18;;;;;;;;;;;;;;;;;;6205419;23;20024;-86
2023/10/01 12:06:13;;;;;;;;;;;;;;;;;;;;;
2023/10/01 12:08:49;;;;;;;7.37;5.20;;;;;;;;;;6184651;23;20020;-87
2023/10/01 12:11:27;;;;;;;10.80;6.50;;;;;;;;;;6204002;23;20016;-86
2023/10/01 12:14:08;;;;;;;9.35;5.03;;;;;;;;;;6190740;23;20031;-86
2023/10/01 12:16:39;;;;;;;7.50;5.13;;;;;;;;;;6217874;23;20017;-86
2023/10/01 12:19:24;;;;;;;8.32;5.45;;;;;;;;;;6223629;23;20012;-86
2023/10/01 12:22:06;;;;;;;6.47;4.60;;;;;;;;;;6186313;23;20024;-86
2023/10/01 12:24:39;;;;;;;6.75;5.32;;;;;;;;;;6223228;23;20020;-86
2023/10/01 12:27:10;;;;;;;9.90;5.07;;;;;;;;;;6215596;23;20013;-86
2023/10/01 12:29:42;;;;;;;8.95;6.22;;;;;;;;;;6162635;23;20025;-86
2023/10/01 12:32:12;;;;;;;7.25;5.25;;;;;;;;;;6161080;23;20017;-86
2023/10/01 12:34:42;;;;;;;7.57;4.90;;;;;;;;;;6160725;23;20114;-86
2023/10/01 12:40:13;;;;;;;7.50;4.22;;;;;;;;;;6186135;23;20027;-86
2023/10/01 12:42:50;;;;;;;8.13;5.60;;;;;;;;;;6196130;23;20035;-86
2023/10/01 12:45:20;;;;;;;5.38;4.30;;;;;;;;;;6222865;23;20457;-86
2023/10/01 12:47:51;;;;;;;7.30;4.72;;;;;;;;;;6161558;23;20020;-86
2023/10/01 12:50:27;;;;;;;6.90;4.82;;;;;;;;;;6185520;23;20017;-86
2023/10/01 12:53:19;;;;;;;8.80;5.13;;;;;;;;;;6161640;23;20024;-86
2023/10/01 12:55:52;;;;;;;10.00;5.72;;;;;;;;;;6161236;23;20020;-87
2023/10/01 12:58:35;;;;;;;6.80;4.10;;;;;;;;;;6186540;23;20023;-86
2023/10/01 13:01:04;;;;;;;7.88;5.63;;;;;;;;;;6185907;23;20035;-86
2023/10/01 13:03:42;;;;;;;6.80;4.20;;;;;;;;;;6213118;23;20024;-86
2023/10/01 13:06:12;;;;;;;9.02;5.82;;;;;;;;;;6193631;23;20021;-87
2023/10/01 13:08:42;;;;;;;8.23;5.32;;;;;;;;;;6198424;23;20071;-86
2023/10/01 13:11:43;;;;;;;9.50;4.82;;;;;;;;;;6187312;23;20036;-87
2023/10/01 13:14:16;;;;;;;8.55;5.65;;;;;;;;;;6188336;23;20016;-86
2023/10/01 13:16:50;;;;;;;7.75;5.75;;;;;;;;;;6219122;23;20016;-86
2023/10/01 13:19:23;;;;;;;8.07;5.63;;;;;;;;;;6188521;23;20016;-86
2023/10/01 13:21:53;;;;;;;;;;;;;;;;;;6198168;23;20023;-86
2023/10/01 13:24:23;;;;;;;9.55;4.57;;;;;;;;;;6163471;23;20260;-86
2023/10/01 13:27:21;;;;;;;12.93;6.15;;;;;;;;;;6187965;23;20464;-86
2023/10/01 13:31:03;;;;;;;7.93;5.32;;;;;;;;;;6199524;23;20412;-87
2023/10/01 14:08:54;;;;;;;5.63;4.55;;;;;;;;;;6101683;23;20449;-84
2023/10/01 14:11:27;;;;;;;7.05;5.03;;;;;;;;;;6101280;23;20013;-84
2023/10/01 14:13:54;;;;;;;13.60;4.65;;;;;;;;;;6144933;23;20020;-84
2023/10/01 14:16:23;;;;;;;7.55;4.13;;;;;;;;;;6244998;23;20009;-84
2023/10/01 14:19:13;;;;;;;7.63;4.22;;;;;;;;;;6245017;23;20019;-84
2023/10/01 14:21:42;;;;;;;6.60;4.60;;;;;;;;;;6193042;23;20046;-84
2023/10/01 14:24:25;;;;;;;6.15;4.20;;;;;;;;;;6217428;23;20020;-84
2023/10/01 14:26:55;;;;;;;5.95;4.40;;;;;;;;;;6192832;23;20023;-84
2023/10/01 14:29:23;;;;;;;5.60;3.78;;;;;;;;;;6193075;23;20358;-84
2023/10/01 14:31:52;;;;;;;7.65;4.43;;;;;;;;;;6217553;23;20012;-84
2023/10/01 14:34:21;;;;;;;9.75;4.82;;;;;;;;;;6217052;23;20016;-84
2023/10/01 14:36:51;;;;;;;6.85;4.32;;;;;;;;;;6191808;23;20498;-84
2023/10/01 14:39:29;;;;;;;5.95;4.43;;;;;;;;;;6217364;23;20015;-84
2023/10/01 14:41:57;;;;;;;8.30;4.13;;;;;;;;;;6225971;23;20016;-84
2023/10/01 14:44:25;;;;;;;4.93;3.88;;;;;;;;;;6189250;23;20043;-84
2023/10/01 14:53:50;;;;;;;;;;;;;;;;;;;;;
2023/10/01 14:57:40;;;;;;;;;;;;;;;;;;;;;
2023/10/01 15:19:25;;;;;;;6.80;4.68;;;;;;;;;;6067683;23;20021;-84
2023/10/01 15:22:03;;;;;;;7.03;4.65;;;;;;;;;;6243598;23;20352;-84
2023/10/01 15:24:30;;;;;;;7.93;4.15;;;;;;;;;;6253232;23;20012;-84
2023/10/01 15:27:00;;;;;;;8.80;4.57;;;;;;;;;;6214422;23;20368;-83
2023/10/01 15:29:31;;;;;;;6.80;4.80;;;;;;;;;;6189749;23;20376;-83
2023/10/01 15:32:00;;;;;;;5.93;4.63;;;;;;;;;;6216471;23;20471;-83
2023/10/01 15:34:38;;;;;;;6.68;4.57;;;;;;;;;;6214955;23;20027;-84
2023/10/01 15:37:11;;;;;;;7.70;4.82;;;;;;;;;;6245798;22;20016;-84
2023/10/01 15:39:39;;;;;;;5.80;4.30;;;;;;;;;;6191582;23;20460;-84
2023/10/01 15:42:11;;;;;;;5.57;3.97;;;;;;;;;;6216585;23;20631;-84
2023/10/01 15:44:46;;;;;;;7.82;5.28;;;;;;;;;;6216215;23;20016;-84
2023/10/01 16:04:17;;;;;;;5.65;3.67;;;;;;;;;;6239469;22;20016;-84
2023/10/01 16:11:54;;;;;;;7.57;4.63;;;;;;;;;;5971723;24;20481;-84
2023/10/01 16:14:37;;;;;;;5.72;5.05;;;;;;;;;;5950898;24;20021;-84
2023/10/01 16:17:22;;;;;;;5.05;3.92;;;;;;;;;;6093410;23;20029;-84
2023/10/01 16:19:57;;;;;;;8.40;4.60;;;;;;;;;;6225758;23;20055;-84
2023/10/01 16:22:27;;;;;;;5.93;4.38;;;;;;;;;;6240490;23;20016;-84
2023/10/01 16:24:55;;;;;;;9.73;5.47;;;;;;;;;;6243706;23;20008;-84
2023/10/01 16:27:27;;;;;;;9.30;4.65;;;;;;;;;;6216610;23;20023;-84
2023/10/01 16:30:19;;;;;;;9.88;4.32;;;;;;;;;;6192109;23;20024;-84
2023/10/01 16:32:50;;;;;;;7.88;5.40;;;;;;;;;;6191598;23;20020;-84
2023/10/01 16:35:27;;;;;;;10.25;4.75;;;;;;;;;;6215309;23;20373;-84
2023/10/01 16:37:56;;;;;;;6.60;4.10;;;;;;;;;;6167827;23;20020;-84
2023/10/01 16:40:28;;;;;;;7.07;5.45;;;;;;;;;;6226615;23;20012;-84
2023/10/01 16:42:59;;;;;;;5.65;4.18;;;;;;;;;;6218859;23;20042;-84
2023/10/01 16:45:28;;;;;;;9.70;5.30;;;;;;;;;;6191335;23;20456;-84
2023/10/01 16:47:56;;;;;;;7.93;4.85;;;;;;;;;;6245418;23;20015;-83
2023/10/01 16:50:56;;;;;;;7.97;5.53;;;;;;;;;;6217738;23;20015;-84
2023/10/01 16:53:28;;;;;;;9.00;4.95;;;;;;;;;;6192529;23;20027;-84
2023/10/01 16:55:57;;;;;;;5.38;4.30;;;;;;;;;;6193363;23;20020;-83
2023/10/01 16:58:39;;;;;;;8.57;5.13;;;;;;;;;;6167297;23;20012;-83
2023/10/01 17:01:15;;;;;;;6.07;4.77;;;;;;;;;;6193199;23;20019;-83
2023/10/01 17:03:54;;;;;;;9.18;5.00;;;;;;;;;;6193620;23;20024;-83
2023/10/01 17:06:27;;;;;;;9.02;4.85;;;;;;;;;;6217506;23;20027;-83
2023/10/01 17:08:57;;;;;;;8.50;5.07;;;;;;;;;;6256006;23;20020;-83
2023/10/01 17:11:28;;;;;;;7.07;4.70;;;;;;;;;;6218740;23;20020;-84
2023/10/01 17:14:09;;;;;;;8.57;4.47;;;;;;;;;;6194266;23;20023;-83
2023/10/01 17:16:41;;;;;;;8.27;5.28;;;;;;;;;;6219105;23;20039;-84
2023/10/01 17:19:09;;;;;;;7.38;5.85;;;;;;;;;;6193780;23;20352;-83
2023/10/01 17:21:43;;;;;;;6.28;4.20;;;;;;;;;;6228975;23;20016;-84
2023/10/01 17:24:14;;;;;;;6.13;4.38;;;;;;;;;;6256345;23;20016;-83
2023/10/01 17:26:49;;;;;;;10.02;5.70;;;;;;;;;;6217866;23;20031;-84
2023/10/01 17:29:21;;;;;;;5.22;4.00;;;;;;;;;;6228336;23;20467;-83
2023/10/01 17:31:49;;;;;;;7.65;4.82;;;;;;;;;;6193262;23;20023;-83
2023/10/01 17:34:24;;;;;;;6.63;5.80;;;;;;;;;;6217972;23;20023;-83
2023/10/01 17:36:54;;;;;;;6.68;5.07;;;;;;;;;;6222507;23;20321;-84
2023/10/01 17:39:25;;;;;;;15.35;5.45;;;;;;;;;;6192926;23;20041;-83
2023/10/01 17:41:57;;;;;;;8.90;5.78;;;;;;;;;;6227523;23;20464;-83
2023/10/01 17:44:28;;;;;;;8.65;5.47;;;;;;;;;;6254104;23;20019;-83
2023/10/01 17:46:59;;;;;;;7.93;4.85;;;;;;;;;;6217790;23;20016;-84
2023/10/01 17:49:27;;;;;;;6.88;4.55;;;;;;;;;;6193465;23;20026;-83
2023/10/01 17:51:59;;;;;;;8.20;4.80;;;;;;;;;;6192314;23;20031;-83
2023/10/01 17:54:27;;;;;;;9.10;5.47;;;;;;;;;;6227921;23;20063;-84
2023/10/01 17:56:55;;;;;;;8.00;5.43;;;;;;;;;;6217176;23;20023;-84
2023/10/01 17:59:26;;;;;;;7.53;4.72;;;;;;;;;;6217966;23;20023;-84
2023/10/01 18:02:05;;;;;;;;;;;;;;;;;;6227543;23;20024;-84
2023/10/01 18:04:36;;;;;;;7.60;5.80;;;;;;;;;;6218366;23;19971;-83
2023/10/01 18:07:15;;;;;;;6.70;5.60;;;;;;;;;;6247136;23;20012;-83
2023/10/01 18:09:45;;;;;;;8.65;5.00;;;;;;;;;;6218315;23;20020;-83
2023/10/01 18:12:27;;;;;;;6.85;5.68;;;;;;;;;;6192335;23;20464;-84
2023/10/01 18:14:55;;;;;;;7.68;4.50;;;;;;;;;;6234843;23;20015;-81
2023/10/01 18:17:22;;;;;;;6.03;5.00;;;;;;;;;;6264947;23;20004;-80
2023/10/01 18:19:54;;;;;;;6.10;5.03;;;;;;;;;;6263734;23;20016;-80
2023/10/01 18:22:25;;;;;;;5.95;5.35;;;;;;;;;;6212318;23;20024;-80
2023/10/01 18:24:56;;;;;;;6.82;5.32;;;;;;;;;;6232442;23;20038;-83
2023/10/01 18:27:24;;;;;;;7.32;5.38;;;;;;;;;;6245423;23;20019;-84
2023/10/01 18:29:52;;;;;;;11.15;5.53;;;;;;;;;;6250423;23;20035;-84
2023/10/01 18:32:22;;;;;;;5.80;5.28;;;;;;;;;;6200207;23;20020;-85
2023/10/01 18:34:50;;;;;;;7.95;5.35;;;;;;;;;;6211921;23;20000;-85
2023/10/01 18:37:24;;;;;;;10.60;6.00;;;;;;;;;;6243150;23;20015;-84
2023/10/01 18:39:55;;;;;;;7.35;4.65;;;;;;;;;;6230850;23;20023;-84
2023/10/01 18:42:23;;;;;;;5.55;5.05;;;;;;;;;;6218560;23;20340;-84
2023/10/01 18:44:52;;;;;;;7.70;4.85;;;;;;;;;;6220741;23;20023;-84
2023/10/01 18:47:24;;;;;;;9.88;5.82;;;;;;;;;;6192582;23;20028;-84
2023/10/01 18:49:51;;;;;;;8.80;6.05;;;;;;;;;;6217496;23;20035;-84
2023/10/01 18:52:20;;;;;;;7.75;5.85;;;;;;;;;;6217021;23;20012;-84
2023/10/01 18:54:48;;;;;;;9.60;5.00;;;;;;;;;;6192353;23;20019;-84
2023/10/01 18:57:18;;;;;;;9.07;6.25;;;;;;;;;;6219357;23;20023;-84
2023/10/01 18:59:48;;;;;;;10.40;5.72;;;;;;;;;;6217791;23;20012;-83
2023/10/01 19:02:21;;;;;;;7.90;4.72;;;;;;;;;;6227321;23;20306;-83
2023/10/01 19:04:49;;;;;;;6.68;5.90;;;;;;;;;;6222077;23;20023;-83
2023/10/01 19:07:18;;;;;;;8.75;6.53;;;;;;;;;;6192165;23;20016;-83
2023/10/01 19:09:48;;;;;;;9.35;6.45;;;;;;;;;;6217688;23;20016;-84
2023/10/01 19:12:19;;;;;;;8.30;5.82;;;;;;;;;;6203698;23;20020;-83
2023/10/01 19:14:48;;;;;;;8.10;5.35;;;;;;;;;;6192732;23;20016;-83
2023/10/01 19:17:18;;;;;;;10.23;6.50;;;;;;;;;;6218673;23;20039;-83
2023/10/01 19:19:45;;;;;;;11.63;6.70;;;;;;;;;;6193070;23;20508;-83
2023/10/01 19:22:12;;;;;;;8.75;6.22;;;;;;;;;;6217030;23;20019;-83
2023/10/01 19:24:40;;;;;;;8.23;6.28;;;;;;;;;;6192473;23;20020;-84
2023/10/01 19:27:13;;;;;;;10.90;6.65;;;;;;;;;;6243375;23;20015;-84
2023/10/01 19:29:42;;;;;;;7.03;5.20;;;;;;;;;;6254825;23;20020;-84
2023/10/01 19:32:12;;;;;;;9.20;6.85;;;;;;;;;;6191578;23;20039;-83
2023/10/01 19:34:43;;;;;;;9.65;6.85;;;;;;;;;;6216260;23;20023;-84
2023/10/01 19:37:14;;;;;;;8.45;6.10;;;;;;;;;;6193147;22;20024;-83
2023/10/01 19:39:42;;;;;;;7.90;6.57;;;;;;;;;;6219106;23;20019;-82
2023/10/01 19:42:11;;;;;;;19.98;6.90;;;;;;;;;;6192734;23;20035;-82
2023/10/01 19:44:42;;;;;;;7.72;6.15;;;;;;;;;;6193556;23;20023;-82
2023/10/01 19:47:11;;;;;;;6.97;5.63;;;;;;;;;;6192928;23;20030;-81
2023/10/01 19:49:41;;;;;;;8.05;5.47;;;;;;;;;;6229191;23;20015;-82
2023/10/01 19:52:22;;;;;;;8.20;6.68;;;;;;;;;;6228530;23;20344;-82
2023/10/01 19:54:53;;;;;;;8.07;6.68;;;;;;;;;;6252934;23;20012;-82
2023/10/01 19:57:32;;;;;;;10.98;7.30;;;;;;;;;;6194715;23;20027;-81
2023/10/01 20:00:01;;;;;;;6.03;5.30;;;;;;;;;;6196574;23;20016;-82
2023/10/01 20:02:34;;;;;;;9.05;6.13;;;;;;;;;;6218534;23;20357;-82
2023/10/01 20:05:05;;;;;;;9.70;5.47;;;;;;;;;;6257282;23;20547;-80
2023/10/01 20:07:37;;;;;;;8.50;6.53;;;;;;;;;;6250795;22;20024;-80
2023/10/01 20:10:11;;;;;;;10.32;6.88;;;;;;;;;;6195750;23;20020;-80
2023/10/01 20:12:42;;;;;;;10.95;7.30;;;;;;;;;;6222718;23;20026;-80
2023/10/01 20:15:21;;;;;;;7.05;5.88;;;;;;;;;;6200242;23;20020;-80
2023/10/01 20:17:49;;;;;;;7.05;6.07;;;;;;;;;;6201579;23;20215;-81
2023/10/01 20:20:19;;;;;;;9.63;5.65;;;;;;;;;;6227020;23;20016;-81
2023/10/01 20:22:48;;;;;;;9.50;6.93;;;;;;;;;;6226263;23;20016;-80
2023/10/01 20:25:15;;;;;;;9.32;7.07;;;;;;;;;;6201338;23;20020;-81
2023/10/01 20:27:45;;;;;;;10.38;6.78;;;;;;;;;;6253983;22;20027;-81
2023/10/01 20:30:14;;;;;;;16.42;6.90;;;;;;;;;;6201922;23;20012;-80
2023/10/01 20:32:45;;;;;;;9.02;5.85;;;;;;;;;;6226099;23;20020;-80
2023/10/01 20:35:15;;;;;;;6.93;6.30;;;;;;;;;;6236901;23;20332;-80
2023/10/01 20:37:42;;;;;;;7.88;5.80;;;;;;;;;;6251764;23;20024;-80
2023/10/01 20:40:12;;;;;;;7.60;6.18;;;;;;;;;;6226611;23;20020;-80
2023/10/01 20:42:41;;;;;;;7.85;6.32;;;;;;;;;;6225475;23;20032;-80
2023/10/01 20:45:20;;;;;;;9.88;7.03;;;;;;;;;;6226536;23;20019;-80
2023/10/01 21:05:27;;;;;;;8.80;6.53;;;;;;;;;;6245993;22;20024;-80
2023/10/01 21:08:11;;;;;;;12.02;6.05;;;;;;;;;;6226839;23;20351;-80
2023/10/01 21:10:41;;;;;;;;;;;;;;;;;;6236394;23;20019;-80
2023/10/01 21:13:11;;;;;;;8.13;5.93;;;;;;;;;;6227557;23;19958;-80
2023/10/01 21:15:41;;;;;;;8.45;7.15;;;;;;;;;;6252356;22;20372;-81
2023/10/01 21:18:11;;;;;;;7.25;6.07;;;;;;;;;;6201573;23;20016;-81
2023/10/01 21:20:43;;;;;;;12.23;7.15;;;;;;;;;;6200810;23;20012;-80
2023/10/01 21:23:14;;;;;;;7.43;5.35;;;;;;;;;;6262448;23;20016;-80
2023/10/01 21:25:48;;;;;;;9.80;6.25;;;;;;;;;;6226516;22;20031;-80